Observation data for Plainview on 07/12/2020      Previous  Date  Next       Current Mesonet Observations  Soil Data  Daily Summary Page  Observations in Plain Language
KPVS 120500Z 33011G19KT 30/10 A3005 RMK A01 T03040097  RH  029%=      5-min Rain = 0
KPVS 120505Z 33007KT 31/09 A3006 RMK A01 T03140094  RH  026%=      5-min Rain = 0
KPVS 120510Z 32009KT 32/09 A3006 RMK A01 T03180093  RH  026%=      5-min Rain = 0
KPVS 120515Z 31010G15KT 32/09 A3006 RMK A01 T03210092  RH  025%=      5-min Rain = 0
KPVS 120520Z 29009G14KT 32/09 A3006 RMK A01 T03240090  RH  024%=      5-min Rain = 0
KPVS 120525Z 28006KT 32/09 A3006 RMK A01 T03240090  RH  024%=      5-min Rain = 0
KPVS 120530Z 27004KT 32/09 A3006 RMK A01 T03240089  RH  024%=      5-min Rain = 0
KPVS 120535Z 24003KT 32/09 A3006 RMK A01 T03240088  RH  024%=      5-min Rain = 0
KPVS 120540Z 22003KT 32/09 A3006 RMK A01 T03230089  RH  024%=      5-min Rain = 0
KPVS 120545Z 25002KT 32/09 A3007 RMK A01 T03190090  RH  025%=      5-min Rain = 0
KPVS 120550Z 33005KT 31/09 A3007 RMK A01 T03100090  RH  026%=      5-min Rain = 0
KPVS 120555Z 33007KT 30/09 A3008 RMK A01 T03040094  RH  028%=      5-min Rain = 0
KPVS 120600Z 34005KT 31/11 A3008 RMK A01 T03050105  RH  030%=      5-min Rain = 0
KPVS 120605Z 34005KT 31/11 A3008 RMK A01 T03050108  RH  031%=      5-min Rain = 0
KPVS 120610Z 36006KT 30/11 A3007 RMK A01 T03010112  RH  032%=      5-min Rain = 0
KPVS 120615Z 36006KT 30/12 A3007 RMK A01 T02980115  RH  033%=      5-min Rain = 0
KPVS 120620Z 35006KT 30/12 A3007 RMK A01 T02970117  RH  034%=      5-min Rain = 0
KPVS 120625Z 35006KT 30/12 A3008 RMK A01 T02960118  RH  035%=      5-min Rain = 0
KPVS 120630Z 35006KT 30/12 A3008 RMK A01 T02950119  RH  035%=      5-min Rain = 0
KPVS 120635Z 35006KT 29/12 A3008 RMK A01 T02940121  RH  036%=      5-min Rain = 0
KPVS 120640Z 00006KT 30/12 A3008 RMK A01 T02960122  RH  036%=      5-min Rain = 0
KPVS 120645Z 01008G13KT 30/12 A3008 RMK A01 T02980123  RH  035%=      5-min Rain = 0
KPVS 120650Z 01010KT 30/12 A3008 RMK A01 T02980123  RH  035%=      5-min Rain = 0
KPVS 120655Z 00011KT 30/12 A3009 RMK A01 T02980122  RH  035%=      5-min Rain = 0
KPVS 120700Z 36011KT 30/12 A3009 RMK A01 T02970121  RH  035%=      5-min Rain = 0
KPVS 120705Z 35012G18KT 30/12 A3009 RMK A01 T02970120  RH  035%=      5-min Rain = 0
KPVS 120710Z 00015G20KT 30/12 A3009 RMK A01 T02990119  RH  034%=      5-min Rain = 0
KPVS 120715Z 00013G18KT 30/12 A3009 RMK A01 T03000118  RH  034%=      5-min Rain = 0
KPVS 120720Z 02014G19KT 30/12 A3008 RMK A01 T03010116  RH  033%=      5-min Rain = 0
KPVS 120725Z 04012KT 31/12 A3007 RMK A01 T03050115  RH  032%=      5-min Rain = 0
KPVS 120730Z 05010KT 30/12 A3007 RMK A01 T03040115  RH  033%=      5-min Rain = 0
KPVS 120735Z 06008KT 30/12 A3006 RMK A01 T03040118  RH  033%=      5-min Rain = 0
KPVS 120740Z 08009G14KT 30/12 A3004 RMK A01 T03040121  RH  034%=      5-min Rain = 0
KPVS 120745Z 09009G15KT 30/12 A3003 RMK A01 T03030123  RH  034%=      5-min Rain = 0
KPVS 120750Z 08011KT 30/13 A3003 RMK A01 T03030126  RH  035%=      5-min Rain = 0
KPVS 120755Z 08011G16KT 31/13 A3003 RMK A01 T03050127  RH  035%=      5-min Rain = 0
KPVS 120800Z 10009G14KT 31/13 A3002 RMK A01 T03060129  RH  035%=      5-min Rain = 0
KPVS 120805Z 10010G15KT 31/13 A3002 RMK A01 T03050128  RH  035%=      5-min Rain = 0
KPVS 120810Z 10008KT 30/13 A3002 RMK A01 T03040128  RH  035%=      5-min Rain = 0
KPVS 120815Z 10008G13KT 30/13 A3001 RMK A01 T03040132  RH  036%=      5-min Rain = 0
KPVS 120820Z 10009G15KT 30/13 A3001 RMK A01 T03010134  RH  037%=      5-min Rain = 0
KPVS 120825Z 11007KT 30/13 A3001 RMK A01 T03000134  RH  038%=      5-min Rain = 0
KPVS 120830Z 11007KT 30/14 A3002 RMK A01 T02990136  RH  039%=      5-min Rain = 0
KPVS 120835Z 12006KT 30/14 A3003 RMK A01 T02990137  RH  039%=      5-min Rain = 0
KPVS 120840Z 13008KT 30/14 A3003 RMK A01 T02980138  RH  039%=      5-min Rain = 0
KPVS 120845Z 11006KT 30/14 A3003 RMK A01 T02970139  RH  040%=      5-min Rain = 0
KPVS 120850Z 09005KT 30/14 A3003 RMK A01 T02950141  RH  041%=      5-min Rain = 0
KPVS 120855Z 10005KT 29/14 A3003 RMK A01 T02930142  RH  041%=      5-min Rain = 0
KPVS 120900Z 12005KT 29/14 A3003 RMK A01 T02910143  RH  042%=      5-min Rain = 0
KPVS 120905Z 11004KT 29/14 A3003 RMK A01 T02900143  RH  043%=      5-min Rain = 0
KPVS 120910Z 11005KT 29/14 A3003 RMK A01 T02870144  RH  043%=      5-min Rain = 0
KPVS 120915Z 12005KT 29/14 A3003 RMK A01 T02850144  RH  044%=      5-min Rain = 0
KPVS 120920Z 12004KT 28/14 A3002 RMK A01 T02830143  RH  044%=      5-min Rain = 0
KPVS 120925Z 12004KT 28/14 A3002 RMK A01 T02810142  RH  044%=      5-min Rain = 0
KPVS 120930Z 10003KT 28/14 A3002 RMK A01 T02790142  RH  045%=      5-min Rain = 0
KPVS 120935Z 06004KT 27/14 A3003 RMK A01 T02740143  RH  046%=      5-min Rain = 0
KPVS 120940Z 06004KT 27/14 A3003 RMK A01 T02740140  RH  046%=      5-min Rain = 0
KPVS 120945Z 08004KT 27/14 A3003 RMK A01 T02740141  RH  046%=      5-min Rain = 0
KPVS 120950Z 10004KT 27/14 A3003 RMK A01 T02720140  RH  046%=      5-min Rain = 0
KPVS 120955Z 10005KT 27/14 A3003 RMK A01 T02700139  RH  046%=      5-min Rain = 0
KPVS 121000Z 10004KT 27/14 A3003 RMK A01 T02690137  RH  046%=      5-min Rain = 0
KPVS 121005Z 10005KT 27/14 A3003 RMK A01 T02680136  RH  046%=      5-min Rain = 0
KPVS 121010Z 11004KT 27/13 A3004 RMK A01 T02660134  RH  046%=      5-min Rain = 0
KPVS 121015Z 11004KT 26/13 A3003 RMK A01 T02640134  RH  046%=      5-min Rain = 0
KPVS 121020Z 11005KT 26/13 A3003 RMK A01 T02620134  RH  047%=      5-min Rain = 0
KPVS 121025Z 11004KT 26/14 A3003 RMK A01 T02590135  RH  048%=      5-min Rain = 0
KPVS 121030Z 12004KT 26/13 A3003 RMK A01 T02570133  RH  048%=      5-min Rain = 0
KPVS 121035Z 11004KT 26/13 A3004 RMK A01 T02570133  RH  048%=      5-min Rain = 0
KPVS 121040Z 11005KT 26/13 A3004 RMK A01 T02550134  RH  049%=      5-min Rain = 0
KPVS 121045Z 12004KT 25/13 A3004 RMK A01 T02540133  RH  049%=      5-min Rain = 0
KPVS 121050Z 13003KT 25/13 A3004 RMK A01 T02540133  RH  049%=      5-min Rain = 0
KPVS 121055Z 15003KT 25/13 A3004 RMK A01 T02530133  RH  049%=      5-min Rain = 0
KPVS 121100Z 16005KT 25/13 A3004 RMK A01 T02530132  RH  049%=      5-min Rain = 0
KPVS 121105Z 17005KT 25/13 A3004 RMK A01 T02540128  RH  047%=      5-min Rain = 0
KPVS 121110Z 17005KT 26/12 A3004 RMK A01 T02560124  RH  045%=      5-min Rain = 0
KPVS 121115Z 18004KT 26/12 A3004 RMK A01 T02570121  RH  044%=      5-min Rain = 0
KPVS 121120Z 18005KT 26/12 A3004 RMK A01 T02580115  RH  042%=      5-min Rain = 0
KPVS 121125Z 18005KT 26/11 A3004 RMK A01 T02590110  RH  040%=      5-min Rain = 0
KPVS 121130Z 19005KT 26/11 A3004 RMK A01 T02590107  RH  040%=      5-min Rain = 0
KPVS 121135Z 19005KT 26/10 A3004 RMK A01 T02600104  RH  039%=      5-min Rain = 0
KPVS 121140Z 19006KT 26/10 A3004 RMK A01 T02620101  RH  038%=      5-min Rain = 0
KPVS 121145Z 20008KT 27/10 A3004 RMK A01 T02670096  RH  035%=      5-min Rain = 0
KPVS 121150Z 20008KT 27/09 A3004 RMK A01 T02730094  RH  034%=      5-min Rain = 0
KPVS 121155Z 20008KT 28/09 A3004 RMK A01 T02750094  RH  033%=      5-min Rain = 0
KPVS 121200Z 21008KT 28/10 A3004 RMK A01 T02750095  RH  033%=      5-min Rain = 0
KPVS 121205Z 21007KT 27/10 A3005 RMK A01 T02730095  RH  034%=      5-min Rain = 0
KPVS 121210Z 21006KT 27/10 A3005 RMK A01 T02730096  RH  034%=      5-min Rain = 0
KPVS 121215Z 21006KT 27/10 A3005 RMK A01 T02720097  RH  034%=      5-min Rain = 0
KPVS 121220Z 21006KT 27/10 A3005 RMK A01 T02720098  RH  035%=      5-min Rain = 0
KPVS 121225Z 21005KT 27/10 A3005 RMK A01 T02720098  RH  035%=      5-min Rain = 0
KPVS 121230Z 21005KT 27/10 A3006 RMK A01 T02710099  RH  035%=      5-min Rain = 0
KPVS 121235Z 10006G12KT 27/10 A3007 RMK A01 T02710102  RH  036%=      5-min Rain = 0
KPVS 121240Z 08010KT 27/11 A3008 RMK A01 T02670111  RH  039%=      5-min Rain = 0
KPVS 121245Z 12004G10KT 27/11 A3008 RMK A01 T02670110  RH  039%=      5-min Rain = 0
KPVS 121250Z 08007KT 27/11 A3009 RMK A01 T02740108  RH  037%=      5-min Rain = 0
KPVS 121255Z 06008G14KT 28/11 A3009 RMK A01 T02770111  RH  037%=      5-min Rain = 0
KPVS 121300Z 08007KT 28/12 A3009 RMK A01 T02760115  RH  038%=      5-min Rain = 0
KPVS 121305Z 07008KT 28/12 A301 RMK A01 T02760117  RH  039%=      5-min Rain = 0
KPVS 121310Z 08006KT 28/12 A301 RMK A01 T02760119  RH  039%=      5-min Rain = 0
KPVS 121315Z 08006KT 28/12 A301 RMK A01 T02770121  RH  039%=      5-min Rain = 0
KPVS 121320Z 10006KT 28/12 A301 RMK A01 T02770123  RH  040%=      5-min Rain = 0
KPVS 121325Z 13007KT 28/12 A3009 RMK A01 T02780122  RH  040%=      5-min Rain = 0
KPVS 121330Z 13007KT 28/12 A3009 RMK A01 T02790124  RH  040%=      5-min Rain = 0
KPVS 121335Z 13006KT 28/12 A3009 RMK A01 T02810123  RH  039%=      5-min Rain = 0
KPVS 121340Z 12006KT 28/12 A3009 RMK A01 T02830122  RH  038%=      5-min Rain = 0
KPVS 121345Z 13005KT 29/12 A3009 RMK A01 T02850124  RH  039%=      5-min Rain = 0
KPVS 121350Z 14006KT 29/13 A3009 RMK A01 T02850125  RH  039%=      5-min Rain = 0
KPVS 121355Z 14006KT 29/13 A3009 RMK A01 T02860125  RH  038%=      5-min Rain = 0
KPVS 121400Z 15004KT 29/13 A3009 RMK A01 T02890125  RH  038%=      5-min Rain = 0
KPVS 121405Z 15006KT 29/12 A3009 RMK A01 T02940122  RH  036%=      5-min Rain = 0
KPVS 121410Z 15006KT 30/12 A3009 RMK A01 T02980120  RH  035%=      5-min Rain = 0
KPVS 121415Z 16008KT 30/12 A3009 RMK A01 T02990119  RH  034%=      5-min Rain = 0
KPVS 121420Z 16008KT 30/12 A3009 RMK A01 T03000119  RH  034%=      5-min Rain = 0
KPVS 121425Z 15007KT 30/12 A3009 RMK A01 T03040121  RH  034%=      5-min Rain = 0
KPVS 121430Z 15009G14KT 31/12 A3009 RMK A01 T03100119  RH  032%=      5-min Rain = 0
KPVS 121435Z 15009G15KT 31/12 A3009 RMK A01 T03120117  RH  031%=      5-min Rain = 0
KPVS 121440Z 16009G14KT 31/12 A3009 RMK A01 T03140121  RH  032%=      5-min Rain = 0
KPVS 121445Z 16012G18KT 31/12 A3009 RMK A01 T03140120  RH  032%=      5-min Rain = 0
KPVS 121450Z 16013G19KT 31/12 A3008 RMK A01 T03110119  RH  032%=      5-min Rain = 0
KPVS 121455Z 14014G19KT 31/12 A3009 RMK A01 T03100118  RH  032%=      5-min Rain = 0
KPVS 121500Z 17013G19KT 31/12 A3009 RMK A01 T03120118  RH  032%=      5-min Rain = 0
KPVS 121505Z 16012G20KT 32/12 A3009 RMK A01 T03150118  RH  031%=      5-min Rain = 0
KPVS 121510Z 17014G20KT 32/12 A3009 RMK A01 T03160115  RH  030%=      5-min Rain = 0
KPVS 121515Z 18014KT 32/12 A3009 RMK A01 T03180116  RH  030%=      5-min Rain = 0
KPVS 121520Z 16014G19KT 32/12 A3009 RMK A01 T03180120  RH  031%=      5-min Rain = 0
KPVS 121525Z 17013G18KT 32/12 A3009 RMK A01 T03180120  RH  031%=      5-min Rain = 0
KPVS 121530Z 17012G17KT 32/12 A3008 RMK A01 T03210122  RH  031%=      5-min Rain = 0
KPVS 121535Z 16013G18KT 32/13 A3008 RMK A01 T03240125  RH  031%=      5-min Rain = 0
KPVS 121540Z 16011G16KT 32/13 A3008 RMK A01 T03240125  RH  031%=      5-min Rain = 0
KPVS 121545Z 18012G18KT 33/12 A3008 RMK A01 T03280121  RH  029%=      5-min Rain = 0
KPVS 121550Z 16012G18KT 33/12 A3008 RMK A01 T03270120  RH  029%=      5-min Rain = 0
KPVS 121555Z 18013KT 33/12 A3007 RMK A01 T03300115  RH  028%=      5-min Rain = 0
KPVS 121600Z 17014G20KT 33/11 A3007 RMK A01 T03340114  RH  027%=      5-min Rain = 0
KPVS 121605Z 17013G19KT 33/11 A3007 RMK A01 T03330114  RH  027%=      5-min Rain = 0
KPVS 121610Z 18011G17KT 34/12 A3007 RMK A01 T03360116  RH  027%=      5-min Rain = 0
KPVS 121615Z 16010G16KT 34/12 A3007 RMK A01 T03390118  RH  027%=      5-min Rain = 0
KPVS 121620Z 17010G15KT 34/12 A3006 RMK A01 T03380117  RH  027%=      5-min Rain = 0
KPVS 121625Z 18010G15KT 34/11 A3006 RMK A01 T03430111  RH  025%=      5-min Rain = 0
KPVS 121630Z 19014G19KT 34/11 A3006 RMK A01 T03420108  RH  025%=      5-min Rain = 0
KPVS 121635Z 19012G18KT 34/11 A3006 RMK A01 T03410109  RH  025%=      5-min Rain = 0
KPVS 121640Z 18011G18KT 35/11 A3006 RMK A01 T03450110  RH  025%=      5-min Rain = 0
KPVS 121645Z 18012G18KT 35/11 A3006 RMK A01 T03500105  RH  023%=      5-min Rain = 0
KPVS 121650Z 18012G18KT 35/11 A3006 RMK A01 T03540107  RH  023%=      5-min Rain = 0
KPVS 121655Z 18012G19KT 36/11 A3005 RMK A01 T03570108  RH  023%=      5-min Rain = 0
KPVS 121700Z 18014G20KT 36/10 A3005 RMK A01 T03600101  RH  022%=      5-min Rain = 0
KPVS 121705Z 19015G21KT 36/09 A3005 RMK A01 T03630090  RH  020%=      5-min Rain = 0
KPVS 121710Z 20016G23KT 36/09 A3004 RMK A01 T03630091  RH  020%=      5-min Rain = 0
KPVS 121715Z 20016G22KT 37/09 A3004 RMK A01 T03650086  RH  019%=      5-min Rain = 0
KPVS 121720Z 19014G20KT 37/08 A3004 RMK A01 T03700083  RH  018%=      5-min Rain = 0
KPVS 121725Z 19017G22KT 37/08 A3004 RMK A01 T03690083  RH  018%=      5-min Rain = 0
KPVS 121730Z 19015G23KT 37/08 A3004 RMK A01 T03680082  RH  018%=      5-min Rain = 0
KPVS 121735Z 18016G23KT 37/08 A3003 RMK A01 T03710083  RH  018%=      5-min Rain = 0
KPVS 121740Z 18017G23KT 37/08 A3003 RMK A01 T03720075  RH  017%=      5-min Rain = 0
KPVS 121745Z 19016G23KT 37/08 A3003 RMK A01 T03710079  RH  017%=      5-min Rain = 0
KPVS 121750Z 19016G23KT 37/09 A3003 RMK A01 T03720088  RH  018%=      5-min Rain = 0
KPVS 121755Z 18015G22KT 38/09 A3003 RMK A01 T03750088  RH  018%=      5-min Rain = 0
KPVS 121800Z 18015G24KT 38/09 A3003 RMK A01 T03760089  RH  018%=      5-min Rain = 0
KPVS 121805Z 19015G22KT 37/09 A3003 RMK A01 T03730088  RH  018%=      5-min Rain = 0
KPVS 121810Z 18016G24KT 37/09 A3003 RMK A01 T03740092  RH  019%=      5-min Rain = 0
KPVS 121815Z 17017G25KT 37/09 A3002 RMK A01 T03730093  RH  019%=      5-min Rain = 0
KPVS 121820Z 18014G23KT 38/10 A3002 RMK A01 T03750096  RH  019%=      5-min Rain = 0
KPVS 121825Z 18016G24KT 38/09 A3002 RMK A01 T03760094  RH  019%=      5-min Rain = 0
KPVS 121830Z 18016G22KT 37/10 A3002 RMK A01 T03730097  RH  019%=      5-min Rain = 0
KPVS 121835Z 18017G26KT 37/09 A3002 RMK A01 T03740088  RH  018%=      5-min Rain = 0
KPVS 121840Z 19017G24KT 37/09 A3002 RMK A01 T03720090  RH  019%=      5-min Rain = 0
KPVS 121845Z 17017G25KT 37/09 A3001 RMK A01 T03740092  RH  019%=      5-min Rain = 0
KPVS 121850Z 16016G25KT 38/09 A3001 RMK A01 T03760091  RH  018%=      5-min Rain = 0
KPVS 121855Z 16017G24KT 38/09 A3001 RMK A01 T03770091  RH  018%=      5-min Rain = 0
KPVS 121900Z 17017G25KT 38/09 A3001 RMK A01 T03780089  RH  018%=      5-min Rain = 0
KPVS 121905Z 17017G26KT 38/08 A30 RMK A01 T03790081  RH  017%=      5-min Rain = 0
KPVS 121910Z 17015G23KT 38/08 A30 RMK A01 T03820078  RH  016%=      5-min Rain = 0
KPVS 121915Z 18016G24KT 39/08 A30 RMK A01 T03850077  RH  016%=      5-min Rain = 0
KPVS 121920Z 19015G25KT 38/08 A30 RMK A01 T03830076  RH  016%=      5-min Rain = 0
KPVS 121925Z 17017G27KT 38/08 A30 RMK A01 T03840075  RH  016%=      5-min Rain = 0
KPVS 121930Z 17014G22KT 38/07 A30 RMK A01 T03830072  RH  015%=      5-min Rain = 0
KPVS 121935Z 18018G26KT 39/07 A2999 RMK A01 T03850066  RH  015%=      5-min Rain = 0
KPVS 121940Z 18017G23KT 39/06 A2999 RMK A01 T03850061  RH  014%=      5-min Rain = 0
KPVS 121945Z 18014G26KT 39/07 A2999 RMK A01 T03880065  RH  014%=      5-min Rain = 0
KPVS 121950Z 16018G24KT 39/07 A2998 RMK A01 T03870065  RH  014%=      5-min Rain = 0
KPVS 121955Z 18016G27KT 39/06 A2998 RMK A01 T03860061  RH  014%=      5-min Rain = 0
KPVS 122000Z 19016G23KT 39/06 A2998 RMK A01 T03890059  RH  014%=      5-min Rain = 0
KPVS 122005Z 18015G22KT 39/05 A2998 RMK A01 T03910052  RH  013%=      5-min Rain = 0
KPVS 122010Z 19016G27KT 39/05 A2998 RMK A01 T03920049  RH  013%=      5-min Rain = 0
KPVS 122015Z 19018G26KT 39/05 A2998 RMK A01 T03930046  RH  012%=      5-min Rain = 0
KPVS 122020Z 19016G25KT 39/05 A2997 RMK A01 T03900047  RH  013%=      5-min Rain = 0
KPVS 122025Z 18015G24KT 40/05 A2997 RMK A01 T03950049  RH  012%=      5-min Rain = 0
KPVS 122030Z 20018G26KT 40/05 A2997 RMK A01 T03950045  RH  012%=      5-min Rain = 0
KPVS 122035Z 19016G26KT 39/04 A2997 RMK A01 T03920038  RH  012%=      5-min Rain = 0
KPVS 122040Z 20017G25KT 39/04 A2997 RMK A01 T03940038  RH  011%=      5-min Rain = 0
KPVS 122045Z 19014G26KT 39/04 A2996 RMK A01 T03920039  RH  012%=      5-min Rain = 0
KPVS 122050Z 18015G22KT 39/04 A2996 RMK A01 T03930041  RH  012%=      5-min Rain = 0
KPVS 122055Z 19019G29KT 40/04 A2996 RMK A01 T03950042  RH  012%=      5-min Rain = 0
KPVS 122100Z 19013G21KT 39/04 A2996 RMK A01 T03940042  RH  012%=      5-min Rain = 0
KPVS 122105Z 19013G24KT 40/04 A2995 RMK A01 T04020044  RH  011%=      5-min Rain = 0
KPVS 122110Z 18015G24KT 40/04 A2995 RMK A01 T03970042  RH  012%=      5-min Rain = 0
KPVS 122115Z 19015G24KT 40/04 A2995 RMK A01 T04000043  RH  011%=      5-min Rain = 0
KPVS 122120Z 19015G26KT 40/04 A2995 RMK A01 T04010044  RH  012%=      5-min Rain = 0
KPVS 122125Z 19014G25KT 40/04 A2994 RMK A01 T03990044  RH  012%=      5-min Rain = 0
KPVS 122130Z 19015G25KT 40/05 A2994 RMK A01 T04000045  RH  012%=      5-min Rain = 0
KPVS 122135Z 19018G26KT 40/04 A2994 RMK A01 T03950044  RH  012%=      5-min Rain = 0
KPVS 122140Z 18013G22KT 40/05 A2994 RMK A01 T03990047  RH  012%=      5-min Rain = 0
KPVS 122145Z 19017G24KT 40/05 A2993 RMK A01 T03980047  RH  012%=      5-min Rain = 0
KPVS 122150Z 19017G22KT 40/05 A2993 RMK A01 T03970046  RH  012%=      5-min Rain = 0
KPVS 122155Z 19015G22KT 40/05 A2993 RMK A01 T03970047  RH  012%=      5-min Rain = 0
KPVS 122200Z 18016G23KT 40/05 A2993 RMK A01 T04000050  RH  012%=      5-min Rain = 0
KPVS 122205Z 19017G26KT 40/05 A2993 RMK A01 T03990049  RH  012%=      5-min Rain = 0
KPVS 122210Z 19015G24KT 40/05 A2993 RMK A01 T04010049  RH  012%=      5-min Rain = 0
KPVS 122215Z 18016G23KT 40/05 A2993 RMK A01 T03990050  RH  012%=      5-min Rain = 0
KPVS 122220Z 18014G21KT 40/05 A2992 RMK A01 T04000050  RH  012%=      5-min Rain = 0
KPVS 122225Z 19014G21KT 40/05 A2992 RMK A01 T04030051  RH  012%=      5-min Rain = 0
KPVS 122230Z 18015G22KT 40/05 A2992 RMK A01 T04010050  RH  012%=      5-min Rain = 0
KPVS 122235Z 20017G23KT 40/05 A2992 RMK A01 T03980049  RH  012%=      5-min Rain = 0
KPVS 122240Z 19016G23KT 40/05 A2992 RMK A01 T03980050  RH  012%=      5-min Rain = 0
KPVS 122245Z 19016G22KT 40/05 A2992 RMK A01 T03990051  RH  012%=      5-min Rain = 0
KPVS 122250Z 19013G21KT 40/05 A2992 RMK A01 T04030052  RH  012%=      5-min Rain = 0
KPVS 122255Z 19017G23KT 40/05 A2992 RMK A01 T04000050  RH  012%=      5-min Rain = 0
KPVS 122300Z 19015G22KT 40/05 A2992 RMK A01 T03970049  RH  012%=      5-min Rain = 0
KPVS 122305Z 18013G20KT 40/05 A2991 RMK A01 T03990049  RH  012%=      5-min Rain = 0
KPVS 122310Z 18013G19KT 40/05 A2991 RMK A01 T04000049  RH  012%=      5-min Rain = 0
KPVS 122315Z 19017G23KT 40/05 A2991 RMK A01 T03990047  RH  012%=      5-min Rain = 0
KPVS 122320Z 18013G20KT 40/05 A2991 RMK A01 T03980046  RH  012%=      5-min Rain = 0
KPVS 122325Z 17014G21KT 40/05 A2991 RMK A01 T03970047  RH  012%=      5-min Rain = 0
KPVS 122330Z 18015G22KT 40/05 A299 RMK A01 T03990047  RH  012%=      5-min Rain = 0
KPVS 122335Z 19016G23KT 40/04 A299 RMK A01 T03990044  RH  012%=      5-min Rain = 0
KPVS 122340Z 18018G23KT 40/04 A299 RMK A01 T03970043  RH  012%=      5-min Rain = 0
KPVS 122345Z 18016G22KT 40/04 A299 RMK A01 T03950042  RH  012%=      5-min Rain = 0
KPVS 122350Z 18014G21KT 39/04 A299 RMK A01 T03940043  RH  012%=      5-min Rain = 0
KPVS 122355Z 18015G23KT 40/04 A299 RMK A01 T03950043  RH  012%=      5-min Rain = 0
KPVS 130000Z 17016G22KT 39/04 A299 RMK A01 T03930043  RH  012%=      5-min Rain = 0
KPVS 130005Z 18017G24KT 39/04 A299 RMK A01 T03920043  RH  012%=      5-min Rain = 0
KPVS 130010Z 17017G23KT 39/04 A2989 RMK A01 T03910041  RH  012%=      5-min Rain = 0
KPVS 130015Z 18017G22KT 39/04 A2989 RMK A01 T03910040  RH  012%=      5-min Rain = 0
KPVS 130020Z 18016G23KT 39/04 A2989 RMK A01 T03900039  RH  012%=      5-min Rain = 0
KPVS 130025Z 18015G22KT 39/04 A2989 RMK A01 T03890038  RH  012%=      5-min Rain = 0
KPVS 130030Z 18016G24KT 39/04 A2989 RMK A01 T03890037  RH  012%=      5-min Rain = 0
KPVS 130035Z 18016G24KT 39/04 A2989 RMK A01 T03880037  RH  012%=      5-min Rain = 0
KPVS 130040Z 18015G20KT 39/04 A299 RMK A01 T03860038  RH  012%=      5-min Rain = 0
KPVS 130045Z 18014G19KT 39/04 A299 RMK A01 T03850037  RH  012%=      5-min Rain = 0
KPVS 130050Z 18014G21KT 38/04 A299 RMK A01 T03840037  RH  012%=      5-min Rain = 0
KPVS 130055Z 18013G19KT 38/04 A299 RMK A01 T03830039  RH  012%=      5-min Rain = 0
KPVS 130100Z 18013G18KT 38/04 A299 RMK A01 T03790038  RH  012%=      5-min Rain = 0
KPVS 130105Z 17012G17KT 38/04 A299 RMK A01 T03760037  RH  013%=      5-min Rain = 0
KPVS 130110Z 17012KT 37/03 A299 RMK A01 T03730033  RH  012%=      5-min Rain = 0
KPVS 130115Z 17012G18KT 37/03 A299 RMK A01 T03700031  RH  012%=      5-min Rain = 0
KPVS 130120Z 17012KT 37/03 A299 RMK A01 T03680030  RH  012%=      5-min Rain = 0
KPVS 130125Z 17012G17KT 37/03 A299 RMK A01 T03650027  RH  012%=      5-min Rain = 0
KPVS 130130Z 17010KT 36/03 A299 RMK A01 T03630028  RH  013%=      5-min Rain = 0
KPVS 130135Z 17011KT 36/03 A299 RMK A01 T03600029  RH  013%=      5-min Rain = 0
KPVS 130140Z 17010KT 36/03 A299 RMK A01 T03570030  RH  013%=      5-min Rain = 0
KPVS 130145Z 16009KT 35/03 A299 RMK A01 T03540032  RH  014%=      5-min Rain = 0
KPVS 130150Z 16008KT 35/03 A299 RMK A01 T03510034  RH  014%=      5-min Rain = 0
KPVS 130155Z 16008KT 35/04 A299 RMK A01 T03480037  RH  015%=      5-min Rain = 0
KPVS 130200Z 17009G15KT 35/04 A299 RMK A01 T03450037  RH  015%=      5-min Rain = 0
KPVS 130205Z 17009KT 34/04 A299 RMK A01 T03440036  RH  015%=      5-min Rain = 0
KPVS 130210Z 17009KT 34/04 A299 RMK A01 T03400038  RH  015%=      5-min Rain = 0
KPVS 130215Z 16009KT 34/04 A299 RMK A01 T03380040  RH  016%=      5-min Rain = 0
KPVS 130220Z 16008G14KT 34/04 A299 RMK A01 T03370042  RH  016%=      5-min Rain = 0
KPVS 130225Z 16009KT 33/04 A299 RMK A01 T03340043  RH  016%=      5-min Rain = 0
KPVS 130230Z 16009KT 33/05 A299 RMK A01 T03330045  RH  017%=      5-min Rain = 0
KPVS 130235Z 16008G13KT 33/05 A2991 RMK A01 T03320047  RH  017%=      5-min Rain = 0
KPVS 130240Z 16008KT 33/05 A2991 RMK A01 T03300050  RH  018%=      5-min Rain = 0
KPVS 130245Z 16007KT 33/05 A2991 RMK A01 T03290051  RH  018%=      5-min Rain = 0
KPVS 130250Z 15007KT 33/05 A2992 RMK A01 T03280052  RH  018%=      5-min Rain = 0
KPVS 130255Z 15006KT 33/05 A2992 RMK A01 T03270051  RH  018%=      5-min Rain = 0
KPVS 130300Z 14008KT 33/05 A2992 RMK A01 T03270050  RH  018%=      5-min Rain = 0
KPVS 130305Z 14007KT 33/05 A2992 RMK A01 T03270052  RH  018%=      5-min Rain = 0
KPVS 130310Z 12006KT 32/06 A2993 RMK A01 T03240057  RH  019%=      5-min Rain = 0
KPVS 130315Z 13007KT 32/06 A2993 RMK A01 T03180059  RH  020%=      5-min Rain = 0
KPVS 130320Z 13007KT 32/06 A2994 RMK A01 T03150060  RH  021%=      5-min Rain = 0
KPVS 130325Z 14007KT 32/06 A2994 RMK A01 T03150063  RH  021%=      5-min Rain = 0
KPVS 130330Z 13006KT 31/07 A2994 RMK A01 T03140065  RH  022%=      5-min Rain = 0
KPVS 130335Z 13006KT 31/07 A2994 RMK A01 T03110066  RH  022%=      5-min Rain = 0
KPVS 130340Z 13006KT 31/07 A2994 RMK A01 T03100065  RH  022%=      5-min Rain = 0
KPVS 130345Z 14006KT 31/07 A2994 RMK A01 T03100065  RH  022%=      5-min Rain = 0
KPVS 130350Z 14007KT 31/07 A2994 RMK A01 T03090066  RH  022%=      5-min Rain = 0
KPVS 130355Z 14006KT 31/07 A2994 RMK A01 T03070068  RH  023%=      5-min Rain = 0
KPVS 130400Z 13005KT 30/07 A2994 RMK A01 T03040070  RH  024%=      5-min Rain = 0
KPVS 130405Z 13004KT 30/07 A2995 RMK A01 T03000072  RH  025%=      5-min Rain = 0
KPVS 130410Z 15004KT 30/07 A2995 RMK A01 T02980071  RH  025%=      5-min Rain = 0
KPVS 130415Z 28002G7KT 29/07 A2996 RMK A01 T02940070  RH  025%=      5-min Rain = 0
KPVS 130420Z 30007KT 28/07 A2997 RMK A01 T02820068  RH  027%=      5-min Rain = 0
KPVS 130425Z 30005KT 29/07 A2997 RMK A01 T02890067  RH  025%=      5-min Rain = 0
KPVS 130430Z 26002KT 30/06 A2997 RMK A01 T02980064  RH  024%=      5-min Rain = 0
KPVS 130435Z 23001KT 30/07 A2998 RMK A01 T03010065  RH  023%=      5-min Rain = 0
KPVS 130440Z 27004KT 30/06 A2998 RMK A01 T03020064  RH  023%=      5-min Rain = 0
KPVS 130445Z 26006KT 31/06 A2999 RMK A01 T03060060  RH  022%=      5-min Rain = 0
KPVS 130450Z 25004KT 31/06 A2999 RMK A01 T03070060  RH  022%=      5-min Rain = 0
KPVS 130455Z 23004KT 31/06 A2999 RMK A01 T03070061  RH  022%=      5-min Rain = 0

Page generated in 0.0096 seconds.